Terminal Aerodrome Forecast
Issued by NWS Sterling, VA

Home | Current Version | Previous Version | Text Only | Print | Product List | Glossary On
Versions: 1 2 3 4 5 6 7 8 9 10 11 12 13 14 15 16 17 18 19 20 21 22
401
FTUS41 KLWX 262330
TAFIAD
TAF
KIAD 262330Z 2700/2806 17009KT P6SM -SHRA OVC025
     FM270400 20007KT P6SM -SHRA BKN008 OVC025
     FM270700 26005KT 3SM -SHRA BR BKN008 OVC025
     FM271300 33005KT 6SM BR BKN050 BKN070
     FM271600 31005KT P6SM FEW060
     FM271800 24004KT P6SM FEW060
     FM272100 18005KT P6SM SKC
     FM280300 00000KT 3SM BR SKC=

USA.gov is the U.S. government's official web portal to all federal, state and local government web resources and services.